sensor_id;sensor_type;location;lat;lon;timestamp;P1;durP1;ratioP1;P2;durP2;ratioP2
78927;SDS011;68322;22.726;113.540;2023-04-04T00:02:10;27.73;;;14.80;;
78927;SDS011;68322;22.726;113.540;2023-04-04T00:04:36;31.17;;;14.80;;
78927;SDS011;68322;22.726;113.540;2023-04-04T00:07:03;27.67;;;13.88;;
78927;SDS011;68322;22.726;113.540;2023-04-04T00:09:30;31.48;;;14.75;;
78927;SDS011;68322;22.726;113.540;2023-04-04T00:11:57;26.00;;;13.73;;
78927;SDS011;68322;22.726;113.540;2023-04-04T00:14:24;28.55;;;15.30;;
78927;SDS011;68322;22.726;113.540;2023-04-04T00:16:51;25.80;;;13.52;;
78927;SDS011;68322;22.726;113.540;2023-04-04T00:19:18;23.20;;;11.88;;
78927;SDS011;68322;22.726;113.540;2023-04-04T00:21:45;28.27;;;14.80;;
78927;SDS011;68322;22.726;113.540;2023-04-04T00:24:12;24.75;;;10.80;;
78927;SDS011;68322;22.726;113.540;2023-04-04T00:26:38;30.00;;;14.45;;
78927;SDS011;68322;22.726;113.540;2023-04-04T00:29:05;29.85;;;15.75;;
78927;SDS011;68322;22.726;113.540;2023-04-04T00:31:32;31.27;;;15.77;;
78927;SDS011;68322;22.726;113.540;2023-04-04T00:33:59;29.42;;;15.70;;
78927;SDS011;68322;22.726;113.540;2023-04-04T00:36:25;29.80;;;16.45;;
78927;SDS011;68322;22.726;113.540;2023-04-04T00:38:52;32.70;;;15.93;;
78927;SDS011;68322;22.726;113.540;2023-04-04T00:41:19;32.58;;;16.02;;
78927;SDS011;68322;22.726;113.540;2023-04-04T00:43:47;32.47;;;16.83;;
78927;SDS011;68322;22.726;113.540;2023-04-04T00:46:14;31.13;;;16.45;;
78927;SDS011;68322;22.726;113.540;2023-04-04T00:48:43;29.15;;;15.13;;
78927;SDS011;68322;22.726;113.540;2023-04-04T00:51:10;33.47;;;17.98;;
78927;SDS011;68322;22.726;113.540;2023-04-04T00:53:36;32.78;;;16.88;;
78927;SDS011;68322;22.726;113.540;2023-04-04T00:56:03;34.15;;;17.23;;
78927;SDS011;68322;22.726;113.540;2023-04-04T00:58:31;29.60;;;17.83;;
78927;SDS011;68322;22.726;113.540;2023-04-04T01:00:58;28.45;;;16.05;;
78927;SDS011;68322;22.726;113.540;2023-04-04T01:03:25;37.38;;;18.40;;
78927;SDS011;68322;22.726;113.540;2023-04-04T01:05:53;35.97;;;17.67;;
78927;SDS011;68322;22.726;113.540;2023-04-04T01:08:20;38.17;;;20.50;;
78927;SDS011;68322;22.726;113.540;2023-04-04T01:13:17;39.25;;;17.25;;
78927;SDS011;68322;22.726;113.540;2023-04-04T01:15:44;40.50;;;18.55;;
78927;SDS011;68322;22.726;113.540;2023-04-04T01:18:12;40.85;;;18.30;;
78927;SDS011;68322;22.726;113.540;2023-04-04T01:20:50;40.17;;;20.02;;
78927;SDS011;68322;22.726;113.540;2023-04-04T01:23:18;29.15;;;14.63;;
78927;SDS011;68322;22.726;113.540;2023-04-04T01:25:47;41.10;;;18.27;;
78927;SDS011;68322;22.726;113.540;2023-04-04T01:28:13;40.55;;;17.50;;
78927;SDS011;68322;22.726;113.540;2023-04-04T01:30:40;44.45;;;17.05;;
78927;SDS011;68322;22.726;113.540;2023-04-04T01:33:21;30.77;;;16.38;;
78927;SDS011;68322;22.726;113.540;2023-04-04T01:41:11;31.80;;;13.65;;
78927;SDS011;68322;22.726;113.540;2023-04-04T01:43:39;29.75;;;15.32;;
78927;SDS011;68322;22.726;113.540;2023-04-04T01:46:05;36.67;;;14.82;;
78927;SDS011;68322;22.726;113.540;2023-04-04T01:48:32;22.40;;;11.07;;
78927;SDS011;68322;22.726;113.540;2023-04-04T01:50:59;36.88;;;14.57;;
78927;SDS011;68322;22.726;113.540;2023-04-04T01:53:26;30.70;;;11.25;;
78927;SDS011;68322;22.726;113.540;2023-04-04T01:55:53;31.48;;;12.73;;
78927;SDS011;68322;22.726;113.540;2023-04-04T01:58:21;24.30;;;12.63;;
78927;SDS011;68322;22.726;113.540;2023-04-04T02:00:48;32.47;;;14.38;;
78927;SDS011;68322;22.726;113.540;2023-04-04T02:03:14;28.67;;;12.68;;
78927;SDS011;68322;22.726;113.540;2023-04-04T02:05:41;25.25;;;11.45;;
78927;SDS011;68322;22.726;113.540;2023-04-04T02:08:08;30.38;;;11.75;;
78927;SDS011;68322;22.726;113.540;2023-04-04T02:10:36;27.48;;;11.88;;
78927;SDS011;68322;22.726;113.540;2023-04-04T02:13:03;24.10;;;11.43;;
78927;SDS011;68322;22.726;113.540;2023-04-04T02:15:32;29.92;;;11.93;;
78927;SDS011;68322;22.726;113.540;2023-04-04T02:17:58;28.25;;;11.15;;
78927;SDS011;68322;22.726;113.540;2023-04-04T02:20:26;26.38;;;11.55;;
78927;SDS011;68322;22.726;113.540;2023-04-04T02:22:53;22.88;;;11.52;;
78927;SDS011;68322;22.726;113.540;2023-04-04T02:25:21;32.33;;;11.93;;
78927;SDS011;68322;22.726;113.540;2023-04-04T02:27:48;25.23;;;10.73;;
78927;SDS011;68322;22.726;113.540;2023-04-04T02:30:14;28.38;;;10.98;;
78927;SDS011;68322;22.726;113.540;2023-04-04T02:32:41;24.70;;;10.93;;
78927;SDS011;68322;22.726;113.540;2023-04-04T02:35:10;22.45;;;10.95;;
78927;SDS011;68322;22.726;113.540;2023-04-04T02:37:37;33.08;;;10.82;;
78927;SDS011;68322;22.726;113.540;2023-04-04T02:40:04;26.75;;;10.05;;
78927;SDS011;68322;22.726;113.540;2023-04-04T02:42:31;34.15;;;11.35;;
78927;SDS011;68322;22.726;113.540;2023-04-04T02:44:57;26.48;;;9.52;;
78927;SDS011;68322;22.726;113.540;2023-04-04T02:47:25;26.42;;;10.20;;
78927;SDS011;68322;22.726;113.540;2023-04-04T02:49:51;26.42;;;10.27;;
78927;SDS011;68322;22.726;113.540;2023-04-04T02:52:19;28.45;;;9.55;;
78927;SDS011;68322;22.726;113.540;2023-04-04T02:54:46;23.95;;;10.35;;
78927;SDS011;68322;22.726;113.540;2023-04-04T02:57:14;31.17;;;10.35;;
78927;SDS011;68322;22.726;113.540;2023-04-04T02:59:40;22.92;;;10.55;;
78927;SDS011;68322;22.726;113.540;2023-04-04T03:02:08;28.00;;;10.95;;
78927;SDS011;68322;22.726;113.540;2023-04-04T03:04:35;29.35;;;12.52;;
78927;SDS011;68322;22.726;113.540;2023-04-04T03:07:02;30.48;;;12.05;;
78927;SDS011;68322;22.726;113.540;2023-04-04T03:09:29;31.15;;;10.55;;
78927;SDS011;68322;22.726;113.540;2023-04-04T03:11:56;34.53;;;12.65;;
78927;SDS011;68322;22.726;113.540;2023-04-04T03:14:25;39.35;;;12.50;;
78927;SDS011;68322;22.726;113.540;2023-04-04T03:16:54;28.63;;;11.88;;
78927;SDS011;68322;22.726;113.540;2023-04-04T03:19:21;33.22;;;12.65;;
78927;SDS011;68322;22.726;113.540;2023-04-04T03:21:49;34.78;;;12.82;;
78927;SDS011;68322;22.726;113.540;2023-04-04T03:24:16;26.92;;;11.88;;
78927;SDS011;68322;22.726;113.540;2023-04-04T03:26:43;24.17;;;12.00;;
78927;SDS011;68322;22.726;113.540;2023-04-04T03:29:09;26.58;;;11.48;;
78927;SDS011;68322;22.726;113.540;2023-04-04T03:31:36;38.53;;;13.98;;
78927;SDS011;68322;22.726;113.540;2023-04-04T03:34:03;30.20;;;14.05;;
78927;SDS011;68322;22.726;113.540;2023-04-04T03:36:30;41.72;;;15.07;;
78927;SDS011;68322;22.726;113.540;2023-04-04T03:38:57;37.22;;;14.50;;
78927;SDS011;68322;22.726;113.540;2023-04-04T03:41:24;31.77;;;13.23;;
78927;SDS011;68322;22.726;113.540;2023-04-04T03:43:50;32.33;;;14.77;;
78927;SDS011;68322;22.726;113.540;2023-04-04T03:46:17;25.42;;;13.48;;
78927;SDS011;68322;22.726;113.540;2023-04-04T03:48:44;33.42;;;14.98;;
78927;SDS011;68322;22.726;113.540;2023-04-04T03:51:10;34.00;;;14.68;;
78927;SDS011;68322;22.726;113.540;2023-04-04T03:53:37;35.53;;;15.77;;
78927;SDS011;68322;22.726;113.540;2023-04-04T03:56:04;30.30;;;14.77;;
78927;SDS011;68322;22.726;113.540;2023-04-04T03:58:30;36.33;;;15.98;;
78927;SDS011;68322;22.726;113.540;2023-04-04T04:00:57;31.88;;;14.57;;
78927;SDS011;68322;22.726;113.540;2023-04-04T04:03:24;30.60;;;14.68;;
78927;SDS011;68322;22.726;113.540;2023-04-04T04:05:51;26.15;;;11.02;;
78927;SDS011;68322;22.726;113.540;2023-04-04T04:08:18;30.88;;;13.70;;
78927;SDS011;68322;22.726;113.540;2023-04-04T04:10:45;21.40;;;10.52;;
78927;SDS011;68322;22.726;113.540;2023-04-04T04:13:11;28.95;;;12.77;;
78927;SDS011;68322;22.726;113.540;2023-04-04T04:15:38;31.00;;;12.50;;
78927;SDS011;68322;22.726;113.540;2023-04-04T04:18:05;28.17;;;13.57;;
78927;SDS011;68322;22.726;113.540;2023-04-04T04:20:32;32.72;;;13.55;;
78927;SDS011;68322;22.726;113.540;2023-04-04T04:22:58;31.88;;;13.38;;
78927;SDS011;68322;22.726;113.540;2023-04-04T04:25:25;25.83;;;12.00;;
78927;SDS011;68322;22.726;113.540;2023-04-04T04:27:55;27.30;;;13.80;;
78927;SDS011;68322;22.726;113.540;2023-04-04T04:30:22;28.65;;;12.98;;
78927;SDS011;68322;22.726;113.540;2023-04-04T04:32:49;32.92;;;13.30;;
78927;SDS011;68322;22.726;113.540;2023-04-04T04:35:16;35.50;;;12.70;;
78927;SDS011;68322;22.726;113.540;2023-04-04T04:37:42;32.55;;;14.02;;
78927;SDS011;68322;22.726;113.540;2023-04-04T04:40:09;31.58;;;12.82;;
78927;SDS011;68322;22.726;113.540;2023-04-04T04:42:44;29.40;;;10.93;;
78927;SDS011;68322;22.726;113.540;2023-04-04T04:45:11;38.97;;;14.50;;
78927;SDS011;68322;22.726;113.540;2023-04-04T04:47:40;36.20;;;13.80;;
78927;SDS011;68322;22.726;113.540;2023-04-04T04:50:08;36.63;;;14.07;;
78927;SDS011;68322;22.726;113.540;2023-04-04T04:52:35;31.65;;;14.20;;
78927;SDS011;68322;22.726;113.540;2023-04-04T04:55:02;32.17;;;13.38;;
78927;SDS011;68322;22.726;113.540;2023-04-04T04:57:29;37.42;;;13.55;;
78927;SDS011;68322;22.726;113.540;2023-04-04T04:59:59;26.88;;;12.93;;
78927;SDS011;68322;22.726;113.540;2023-04-04T05:02:26;33.38;;;12.75;;
78927;SDS011;68322;22.726;113.540;2023-04-04T05:04:54;30.88;;;12.38;;
78927;SDS011;68322;22.726;113.540;2023-04-04T05:07:21;35.63;;;12.48;;
78927;SDS011;68322;22.726;113.540;2023-04-04T05:09:50;28.77;;;12.68;;
78927;SDS011;68322;22.726;113.540;2023-04-04T05:12:17;29.85;;;12.02;;
78927;SDS011;68322;22.726;113.540;2023-04-04T05:14:45;22.85;;;11.48;;
78927;SDS011;68322;22.726;113.540;2023-04-04T05:17:12;22.83;;;11.45;;
78927;SDS011;68322;22.726;113.540;2023-04-04T05:19:39;28.20;;;13.10;;
78927;SDS011;68322;22.726;113.540;2023-04-04T05:22:06;26.02;;;12.73;;
78927;SDS011;68322;22.726;113.540;2023-04-04T05:24:33;24.10;;;11.00;;
78927;SDS011;68322;22.726;113.540;2023-04-04T05:27:00;29.50;;;11.65;;
78927;SDS011;68322;22.726;113.540;2023-04-04T05:29:26;33.33;;;13.75;;
78927;SDS011;68322;22.726;113.540;2023-04-04T05:31:53;23.10;;;12.07;;
78927;SDS011;68322;22.726;113.540;2023-04-04T05:34:20;25.13;;;14.27;;
78927;SDS011;68322;22.726;113.540;2023-04-04T05:36:46;26.10;;;9.40;;
78927;SDS011;68322;22.726;113.540;2023-04-04T05:39:13;34.35;;;13.60;;
78927;SDS011;68322;22.726;113.540;2023-04-04T05:41:40;30.75;;;13.88;;
78927;SDS011;68322;22.726;113.540;2023-04-04T05:44:07;23.08;;;12.32;;
78927;SDS011;68322;22.726;113.540;2023-04-04T05:46:33;27.08;;;12.85;;
78927;SDS011;68322;22.726;113.540;2023-04-04T05:49:00;28.52;;;11.18;;
78927;SDS011;68322;22.726;113.540;2023-04-04T05:51:27;25.33;;;12.05;;
78927;SDS011;68322;22.726;113.540;2023-04-04T05:53:54;25.15;;;11.38;;
78927;SDS011;68322;22.726;113.540;2023-04-04T05:56:22;26.90;;;10.27;;
78927;SDS011;68322;22.726;113.540;2023-04-04T05:58:51;25.48;;;10.45;;
78927;SDS011;68322;22.726;113.540;2023-04-04T06:01:18;23.48;;;10.52;;
78927;SDS011;68322;22.726;113.540;2023-04-04T06:03:45;18.23;;;8.93;;
78927;SDS011;68322;22.726;113.540;2023-04-04T06:06:12;23.05;;;9.73;;
78927;SDS011;68322;22.726;113.540;2023-04-04T06:08:38;27.42;;;10.55;;
78927;SDS011;68322;22.726;113.540;2023-04-04T06:11:05;18.35;;;11.00;;
78927;SDS011;68322;22.726;113.540;2023-04-04T06:13:32;19.85;;;10.50;;
78927;SDS011;68322;22.726;113.540;2023-04-04T06:15:59;20.88;;;9.43;;
78927;SDS011;68322;22.726;113.540;2023-04-04T06:18:27;17.02;;;9.02;;
78927;SDS011;68322;22.726;113.540;2023-04-04T06:20:54;20.33;;;9.23;;
78927;SDS011;68322;22.726;113.540;2023-04-04T06:23:21;24.98;;;10.00;;
78927;SDS011;68322;22.726;113.540;2023-04-04T06:25:48;20.35;;;9.20;;
78927;SDS011;68322;22.726;113.540;2023-04-04T06:28:15;20.35;;;9.05;;
78927;SDS011;68322;22.726;113.540;2023-04-04T06:30:42;20.80;;;9.57;;
78927;SDS011;68322;22.726;113.540;2023-04-04T06:33:09;18.15;;;9.73;;
78927;SDS011;68322;22.726;113.540;2023-04-04T06:35:36;22.95;;;10.52;;
78927;SDS011;68322;22.726;113.540;2023-04-04T06:38:03;21.25;;;10.32;;
78927;SDS011;68322;22.726;113.540;2023-04-04T06:40:29;27.20;;;11.50;;
78927;SDS011;68322;22.726;113.540;2023-04-04T06:42:56;24.92;;;9.80;;
78927;SDS011;68322;22.726;113.540;2023-04-04T06:45:23;21.30;;;10.25;;
78927;SDS011;68322;22.726;113.540;2023-04-04T06:47:52;23.77;;;10.63;;
78927;SDS011;68322;22.726;113.540;2023-04-04T06:50:19;27.35;;;11.50;;
78927;SDS011;68322;22.726;113.540;2023-04-04T06:52:49;26.13;;;12.13;;
78927;SDS011;68322;22.726;113.540;2023-04-04T06:55:17;31.83;;;11.82;;
78927;SDS011;68322;22.726;113.540;2023-04-04T06:57:43;28.20;;;13.18;;
78927;SDS011;68322;22.726;113.540;2023-04-04T07:00:10;29.90;;;11.82;;
78927;SDS011;68322;22.726;113.540;2023-04-04T07:02:38;31.30;;;11.57;;
78927;SDS011;68322;22.726;113.540;2023-04-04T07:05:04;30.38;;;12.82;;
78927;SDS011;68322;22.726;113.540;2023-04-04T07:07:31;36.70;;;12.63;;
78927;SDS011;68322;22.726;113.540;2023-04-04T07:09:58;37.20;;;13.70;;
78927;SDS011;68322;22.726;113.540;2023-04-04T07:12:25;33.22;;;12.57;;
78927;SDS011;68322;22.726;113.540;2023-04-04T07:14:53;26.40;;;13.60;;
78927;SDS011;68322;22.726;113.540;2023-04-04T07:19:47;30.45;;;14.00;;
78927;SDS011;68322;22.726;113.540;2023-04-04T07:22:13;32.67;;;14.43;;
78927;SDS011;68322;22.726;113.540;2023-04-04T07:24:40;30.52;;;13.75;;
78927;SDS011;68322;22.726;113.540;2023-04-04T07:27:09;31.02;;;13.73;;
78927;SDS011;68322;22.726;113.540;2023-04-04T07:29:39;30.55;;;13.88;;
78927;SDS011;68322;22.726;113.540;2023-04-04T07:32:06;35.28;;;14.02;;
78927;SDS011;68322;22.726;113.540;2023-04-04T07:34:34;26.45;;;13.52;;
78927;SDS011;68322;22.726;113.540;2023-04-04T07:37:01;30.35;;;12.23;;
78927;SDS011;68322;22.726;113.540;2023-04-04T07:39:28;30.70;;;13.77;;
78927;SDS011;68322;22.726;113.540;2023-04-04T07:41:58;31.38;;;12.90;;
78927;SDS011;68322;22.726;113.540;2023-04-04T07:44:25;35.58;;;15.23;;
78927;SDS011;68322;22.726;113.540;2023-04-04T07:46:52;30.02;;;13.18;;
78927;SDS011;68322;22.726;113.540;2023-04-04T07:49:19;33.90;;;14.15;;
78927;SDS011;68322;22.726;113.540;2023-04-04T07:51:46;29.42;;;14.73;;
78927;SDS011;68322;22.726;113.540;2023-04-04T07:54:13;32.53;;;13.32;;
78927;SDS011;68322;22.726;113.540;2023-04-04T07:56:40;29.10;;;13.55;;
78927;SDS011;68322;22.726;113.540;2023-04-04T07:59:07;36.53;;;13.25;;
78927;SDS011;68322;22.726;113.540;2023-04-04T08:01:33;32.42;;;14.00;;
78927;SDS011;68322;22.726;113.540;2023-04-04T08:04:01;32.00;;;12.38;;
78927;SDS011;68322;22.726;113.540;2023-04-04T08:08:58;32.75;;;13.98;;
78927;SDS011;68322;22.726;113.540;2023-04-04T08:11:25;30.65;;;14.18;;
78927;SDS011;68322;22.726;113.540;2023-04-04T08:13:53;29.75;;;13.80;;
78927;SDS011;68322;22.726;113.540;2023-04-04T08:16:20;27.90;;;13.40;;
78927;SDS011;68322;22.726;113.540;2023-04-04T08:18:47;24.08;;;12.43;;
78927;SDS011;68322;22.726;113.540;2023-04-04T08:21:14;34.45;;;13.68;;
78927;SDS011;68322;22.726;113.540;2023-04-04T08:23:42;25.17;;;10.20;;
78927;SDS011;68322;22.726;113.540;2023-04-04T08:26:08;32.00;;;13.02;;
78927;SDS011;68322;22.726;113.540;2023-04-04T08:28:36;31.17;;;13.00;;
78927;SDS011;68322;22.726;113.540;2023-04-04T08:31:03;32.05;;;14.02;;
78927;SDS011;68322;22.726;113.540;2023-04-04T08:33:30;33.38;;;13.70;;
78927;SDS011;68322;22.726;113.540;2023-04-04T08:36:00;25.23;;;12.55;;
78927;SDS011;68322;22.726;113.540;2023-04-04T08:38:30;25.92;;;10.75;;
78927;SDS011;68322;22.726;113.540;2023-04-04T08:40:57;27.35;;;13.77;;
78927;SDS011;68322;22.726;113.540;2023-04-04T08:43:24;37.72;;;14.55;;
78927;SDS011;68322;22.726;113.540;2023-04-04T08:45:52;30.00;;;13.93;;
78927;SDS011;68322;22.726;113.540;2023-04-04T08:48:19;27.50;;;13.20;;
78927;SDS011;68322;22.726;113.540;2023-04-04T08:50:49;27.10;;;13.88;;
78927;SDS011;68322;22.726;113.540;2023-04-04T08:53:21;35.60;;;13.95;;
78927;SDS011;68322;22.726;113.540;2023-04-04T08:55:48;30.92;;;13.80;;
78927;SDS011;68322;22.726;113.540;2023-04-04T08:58:15;33.17;;;12.57;;
78927;SDS011;68322;22.726;113.540;2023-04-04T09:00:42;30.25;;;12.60;;
78927;SDS011;68322;22.726;113.540;2023-04-04T09:03:09;28.27;;;13.65;;
78927;SDS011;68322;22.726;113.540;2023-04-04T09:05:38;19.00;;;12.82;;
78927;SDS011;68322;22.726;113.540;2023-04-04T09:08:04;30.58;;;13.50;;
78927;SDS011;68322;22.726;113.540;2023-04-04T09:10:31;26.48;;;12.80;;
78927;SDS011;68322;22.726;113.540;2023-04-04T09:13:00;23.58;;;13.63;;
78927;SDS011;68322;22.726;113.540;2023-04-04T09:15:28;31.00;;;12.95;;
78927;SDS011;68322;22.726;113.540;2023-04-04T09:17:55;28.40;;;11.32;;
78927;SDS011;68322;22.726;113.540;2023-04-04T09:20:41;25.83;;;12.57;;
78927;SDS011;68322;22.726;113.540;2023-04-04T09:23:09;26.48;;;12.85;;
78927;SDS011;68322;22.726;113.540;2023-04-04T09:28:03;30.23;;;12.98;;
78927;SDS011;68322;22.726;113.540;2023-04-04T09:30:31;28.90;;;12.13;;
78927;SDS011;68322;22.726;113.540;2023-04-04T09:33:02;30.77;;;13.27;;
78927;SDS011;68322;22.726;113.540;2023-04-04T09:37:57;21.60;;;12.23;;
78927;SDS011;68322;22.726;113.540;2023-04-04T09:40:24;24.10;;;12.98;;
78927;SDS011;68322;22.726;113.540;2023-04-04T09:42:53;23.98;;;11.55;;
78927;SDS011;68322;22.726;113.540;2023-04-04T09:45:24;31.58;;;12.25;;
78927;SDS011;68322;22.726;113.540;2023-04-04T09:47:50;28.45;;;12.30;;
78927;SDS011;68322;22.726;113.540;2023-04-04T09:50:20;28.05;;;12.35;;
78927;SDS011;68322;22.726;113.540;2023-04-04T09:52:51;20.02;;;10.27;;
78927;SDS011;68322;22.726;113.540;2023-04-04T09:55:19;17.98;;;9.75;;
78927;SDS011;68322;22.726;113.540;2023-04-04T09:57:46;25.73;;;10.50;;
78927;SDS011;68322;22.726;113.540;2023-04-04T10:00:17;26.27;;;12.63;;
78927;SDS011;68322;22.726;113.540;2023-04-04T10:02:46;29.95;;;12.93;;
78927;SDS011;68322;22.726;113.540;2023-04-04T10:05:13;21.88;;;13.23;;
78927;SDS011;68322;22.726;113.540;2023-04-04T10:07:42;28.38;;;12.13;;
78927;SDS011;68322;22.726;113.540;2023-04-04T10:10:12;27.73;;;11.80;;
78927;SDS011;68322;22.726;113.540;2023-04-04T10:12:39;28.35;;;11.77;;
78927;SDS011;68322;22.726;113.540;2023-04-04T10:15:06;25.42;;;11.00;;
78927;SDS011;68322;22.726;113.540;2023-04-04T10:17:38;28.25;;;12.35;;
78927;SDS011;68322;22.726;113.540;2023-04-04T10:20:06;30.00;;;12.82;;
78927;SDS011;68322;22.726;113.540;2023-04-04T10:24:59;28.73;;;12.63;;
78927;SDS011;68322;22.726;113.540;2023-04-04T10:27:26;24.17;;;12.73;;
78927;SDS011;68322;22.726;113.540;2023-04-04T10:29:53;21.40;;;12.07;;
78927;SDS011;68322;22.726;113.540;2023-04-04T10:32:42;28.85;;;12.52;;
78927;SDS011;68322;22.726;113.540;2023-04-04T10:35:09;31.42;;;11.60;;
78927;SDS011;68322;22.726;113.540;2023-04-04T10:37:38;32.05;;;12.27;;
78927;SDS011;68322;22.726;113.540;2023-04-04T10:42:37;28.35;;;13.20;;
78927;SDS011;68322;22.726;113.540;2023-04-04T10:45:05;23.23;;;13.38;;
78927;SDS011;68322;22.726;113.540;2023-04-04T10:47:33;32.17;;;14.52;;
78927;SDS011;68322;22.726;113.540;2023-04-04T10:50:00;27.00;;;14.07;;
78927;SDS011;68322;22.726;113.540;2023-04-04T10:52:29;35.55;;;13.82;;
78927;SDS011;68322;22.726;113.540;2023-04-04T10:54:57;33.42;;;13.60;;
78927;SDS011;68322;22.726;113.540;2023-04-04T10:57:24;32.35;;;14.38;;
78927;SDS011;68322;22.726;113.540;2023-04-04T10:59:57;22.13;;;10.75;;
78927;SDS011;68322;22.726;113.540;2023-04-04T11:02:43;33.60;;;13.70;;
78927;SDS011;68322;22.726;113.540;2023-04-04T11:05:18;30.10;;;13.43;;
78927;SDS011;68322;22.726;113.540;2023-04-04T11:07:45;31.58;;;15.90;;
78927;SDS011;68322;22.726;113.540;2023-04-04T11:10:20;35.70;;;16.05;;
78927;SDS011;68322;22.726;113.540;2023-04-04T11:12:57;32.47;;;16.20;;
78927;SDS011;68322;22.726;113.540;2023-04-04T11:15:29;32.50;;;14.45;;
78927;SDS011;68322;22.726;113.540;2023-04-04T11:18:10;29.92;;;15.65;;
78927;SDS011;68322;22.726;113.540;2023-04-04T11:20:40;34.83;;;16.05;;
78927;SDS011;68322;22.726;113.540;2023-04-04T11:23:14;32.95;;;13.93;;
78927;SDS011;68322;22.726;113.540;2023-04-04T11:28:27;27.60;;;15.45;;
78927;SDS011;68322;22.726;113.540;2023-04-04T11:34:04;31.15;;;15.13;;
78927;SDS011;68322;22.726;113.540;2023-04-04T11:39:12;34.83;;;15.88;;
78927;SDS011;68322;22.726;113.540;2023-04-04T11:41:51;30.00;;;14.93;;
78927;SDS011;68322;22.726;113.540;2023-04-04T11:44:19;39.45;;;14.57;;
78927;SDS011;68322;22.726;113.540;2023-04-04T11:47:08;31.02;;;15.52;;
78927;SDS011;68322;22.726;113.540;2023-04-04T11:49:36;31.15;;;15.13;;
78927;SDS011;68322;22.726;113.540;2023-04-04T11:52:07;29.02;;;13.00;;
78927;SDS011;68322;22.726;113.540;2023-04-04T11:54:37;30.92;;;12.88;;
78927;SDS011;68322;22.726;113.540;2023-04-04T11:57:07;29.02;;;14.20;;
78927;SDS011;68322;22.726;113.540;2023-04-04T11:59:37;29.02;;;14.77;;
78927;SDS011;68322;22.726;113.540;2023-04-04T12:02:05;26.50;;;14.45;;
78927;SDS011;68322;22.726;113.540;2023-04-04T12:04:31;27.77;;;14.50;;
78927;SDS011;68322;22.726;113.540;2023-04-04T12:06:58;31.38;;;13.90;;
78927;SDS011;68322;22.726;113.540;2023-04-04T12:09:26;27.45;;;14.10;;
78927;SDS011;68322;22.726;113.540;2023-04-04T12:11:53;30.45;;;12.52;;
78927;SDS011;68322;22.726;113.540;2023-04-04T12:14:22;28.70;;;13.40;;
78927;SDS011;68322;22.726;113.540;2023-04-04T12:16:50;27.15;;;12.05;;
78927;SDS011;68322;22.726;113.540;2023-04-04T12:19:18;27.25;;;13.70;;
78927;SDS011;68322;22.726;113.540;2023-04-04T12:21:48;28.95;;;14.57;;
78927;SDS011;68322;22.726;113.540;2023-04-04T12:24:16;31.50;;;15.00;;
78927;SDS011;68322;22.726;113.540;2023-04-04T12:29:10;28.90;;;13.98;;
78927;SDS011;68322;22.726;113.540;2023-04-04T12:31:39;33.05;;;13.73;;
78927;SDS011;68322;22.726;113.540;2023-04-04T12:34:14;31.90;;;15.63;;
78927;SDS011;68322;22.726;113.540;2023-04-04T12:36:45;28.90;;;14.93;;
78927;SDS011;68322;22.726;113.540;2023-04-04T12:39:13;32.40;;;14.68;;
78927;SDS011;68322;22.726;113.540;2023-04-04T12:41:47;38.85;;;16.40;;
78927;SDS011;68322;22.726;113.540;2023-04-04T12:44:32;31.33;;;16.35;;
78927;SDS011;68322;22.726;113.540;2023-04-04T12:47:02;33.88;;;15.73;;
78927;SDS011;68322;22.726;113.540;2023-04-04T12:49:30;35.10;;;15.73;;
78927;SDS011;68322;22.726;113.540;2023-04-04T12:51:57;37.25;;;15.48;;
78927;SDS011;68322;22.726;113.540;2023-04-04T12:54:44;30.60;;;14.23;;
78927;SDS011;68322;22.726;113.540;2023-04-04T12:57:15;35.13;;;14.55;;
78927;SDS011;68322;22.726;113.540;2023-04-04T12:59:46;30.95;;;14.55;;
78927;SDS011;68322;22.726;113.540;2023-04-04T13:02:17;28.23;;;15.63;;
78927;SDS011;68322;22.726;113.540;2023-04-04T13:04:46;27.85;;;13.55;;
78927;SDS011;68322;22.726;113.540;2023-04-04T13:07:26;28.73;;;14.35;;
78927;SDS011;68322;22.726;113.540;2023-04-04T13:10:00;33.97;;;14.70;;
78927;SDS011;68322;22.726;113.540;2023-04-04T13:15:14;28.13;;;12.02;;
78927;SDS011;68322;22.726;113.540;2023-04-04T13:17:41;26.30;;;14.35;;
78927;SDS011;68322;22.726;113.540;2023-04-04T13:20:11;29.35;;;14.55;;
78927;SDS011;68322;22.726;113.540;2023-04-04T13:22:38;34.10;;;15.35;;
78927;SDS011;68322;22.726;113.540;2023-04-04T13:25:07;29.75;;;14.27;;
78927;SDS011;68322;22.726;113.540;2023-04-04T13:27:34;28.88;;;14.65;;
78927;SDS011;68322;22.726;113.540;2023-04-04T13:30:07;30.75;;;14.50;;
78927;SDS011;68322;22.726;113.540;2023-04-04T13:32:34;31.88;;;15.63;;
78927;SDS011;68322;22.726;113.540;2023-04-04T13:35:04;26.05;;;14.60;;
78927;SDS011;68322;22.726;113.540;2023-04-04T13:37:31;23.13;;;13.57;;
78927;SDS011;68322;22.726;113.540;2023-04-04T13:39:58;31.90;;;13.85;;
78927;SDS011;68322;22.726;113.540;2023-04-04T13:42:25;29.13;;;14.88;;
78927;SDS011;68322;22.726;113.540;2023-04-04T13:44:54;26.90;;;15.05;;
78927;SDS011;68322;22.726;113.540;2023-04-04T13:47:24;26.63;;;14.60;;
78927;SDS011;68322;22.726;113.540;2023-04-04T13:52:18;27.50;;;13.70;;
78927;SDS011;68322;22.726;113.540;2023-04-04T13:54:46;29.00;;;14.07;;
78927;SDS011;68322;22.726;113.540;2023-04-04T13:57:15;28.25;;;15.25;;
78927;SDS011;68322;22.726;113.540;2023-04-04T13:59:41;35.10;;;14.93;;
78927;SDS011;68322;22.726;113.540;2023-04-04T14:02:08;31.30;;;15.32;;
78927;SDS011;68322;22.726;113.540;2023-04-04T14:04:37;28.83;;;15.35;;
78927;SDS011;68322;22.726;113.540;2023-04-04T14:07:04;21.88;;;13.77;;
78927;SDS011;68322;22.726;113.540;2023-04-04T14:09:31;29.13;;;14.57;;
78927;SDS011;68322;22.726;113.540;2023-04-04T14:11:59;26.33;;;15.27;;
78927;SDS011;68322;22.726;113.540;2023-04-04T14:14:26;27.50;;;14.65;;
78927;SDS011;68322;22.726;113.540;2023-04-04T14:16:53;27.75;;;14.90;;
78927;SDS011;68322;22.726;113.540;2023-04-04T14:19:21;27.40;;;12.95;;
78927;SDS011;68322;22.726;113.540;2023-04-04T14:21:50;30.42;;;12.85;;
78927;SDS011;68322;22.726;113.540;2023-04-04T14:24:18;32.03;;;14.55;;
78927;SDS011;68322;22.726;113.540;2023-04-04T14:26:46;30.02;;;13.75;;
78927;SDS011;68322;22.726;113.540;2023-04-04T14:29:14;32.08;;;14.48;;
78927;SDS011;68322;22.726;113.540;2023-04-04T14:31:41;32.05;;;16.67;;
78927;SDS011;68322;22.726;113.540;2023-04-04T14:34:13;30.77;;;16.50;;
78927;SDS011;68322;22.726;113.540;2023-04-04T14:36:39;29.05;;;16.70;;
78927;SDS011;68322;22.726;113.540;2023-04-04T14:39:06;31.35;;;17.05;;
78927;SDS011;68322;22.726;113.540;2023-04-04T14:41:33;38.95;;;17.35;;